Time;durP1;ratioP1;P1;durP2;ratioP2;P2;SDS_P1;SDS_P2;PMS_P1;PMS_P2;Temp;Humidity;BMP_temperature;BMP_pressure;BME280_temperature;BME280_humidity;BME280_pressure;Samples;Min_cycle;Max_cycle;Signal;HPM_P1;HPM_P2
2020/12/18 00:02:06;;;;;;;97.42;47.23;;;;;;;4.64;79.30;101465.67;1706711;82;26269;-80
2020/12/18 00:04:41;;;;;;;106.32;50.03;;;;;;;4.59;79.30;101461.22;1736952;82;26413;-81
2020/12/18 00:07:09;;;;;;;101.38;48.73;;;;;;;4.59;79.42;101455.91;1684260;82;25730;-80
2020/12/18 00:09:36;;;;;;;106.65;48.02;;;;;;;4.61;79.47;101453.97;1710937;82;27266;-81
2020/12/18 00:12:04;;;;;;;101.40;47.75;;;;;;;4.63;79.57;101451.55;1661352;82;25715;-81
2020/12/18 00:14:31;;;;;;;106.70;48.33;;;;;;;4.65;79.49;101458.05;1711483;82;25992;-80
2020/12/18 00:16:59;;;;;;;104.03;47.58;;;;;;;4.68;79.51;101453.31;1709760;82;25852;-80
2020/12/18 00:19:26;;;;;;;107.55;50.55;;;;;;;4.69;79.47;101455.02;1688281;82;26452;-81
2020/12/18 00:21:57;;;;;;;102.30;48.87;;;;;;;4.73;79.45;101452.94;1694158;82;27529;-80
2020/12/18 00:24:25;;;;;;;108.90;48.80;;;;;;;4.73;79.40;101448.95;1710204;82;25830;-80
2020/12/18 00:26:53;;;;;;;106.70;48.58;;;;;;;4.76;79.42;101455.34;1710528;82;25787;-80
2020/12/18 00:29:20;;;;;;;103.80;51.02;;;;;;;4.76;79.41;101459.80;1685241;82;25870;-80
2020/12/18 00:31:48;;;;;;;97.60;48.60;;;;;;;4.77;79.40;101450.89;1665480;82;26547;-80
2020/12/18 00:34:16;;;;;;;103.87;50.78;;;;;;;4.79;79.34;101454.25;1710892;82;27303;-80
2020/12/18 00:36:43;;;;;;;106.97;51.75;;;;;;;4.78;79.27;101453.41;1708962;82;25959;-80
2020/12/18 00:39:10;;;;;;;104.72;50.38;;;;;;;4.78;79.33;101452.55;1688516;82;26453;-80
2020/12/18 00:41:38;;;;;;;108.15;52.03;;;;;;;4.81;79.38;101454.48;1711427;82;26440;-80
2020/12/18 00:44:05;;;;;;;102.35;49.90;;;;;;;4.82;79.29;101448.19;1710496;82;25814;-81
2020/12/18 00:46:32;;;;;;;104.05;53.13;;;;;;;4.85;79.29;101451.92;1686801;82;27526;-80
2020/12/18 00:49:00;;;;;;;108.32;51.00;;;;;;;4.84;79.17;101451.55;1684597;82;25761;-80
2020/12/18 00:51:28;;;;;;;101.85;49.20;;;;;;;4.84;79.22;101462.65;1710834;82;25780;-80
2020/12/18 00:53:55;;;;;;;101.97;50.38;;;;;;;4.83;79.24;101448.56;1710225;82;26497;-80
2020/12/18 00:56:23;;;;;;;101.15;49.25;;;;;;;4.85;79.22;101461.22;1706818;82;25876;-80
2020/12/18 00:58:50;;;;;;;105.50;49.83;;;;;;;4.86;79.23;101463.36;1677513;84;27558;-80
2020/12/18 01:01:18;;;;;;;103.32;50.35;;;;;;;4.87;79.25;101455.29;1699618;83;25845;-80
2020/12/18 01:03:45;;;;;;;100.02;49.95;;;;;;;4.86;79.07;101456.72;1693415;83;25881;-80
2020/12/18 01:06:14;;;;;;;109.12;51.18;;;;;;;4.84;79.12;101458.67;1665551;83;25909;-80
2020/12/18 01:08:51;;;;;;;106.30;51.63;;;;;;;4.88;79.10;101454.78;1814234;78;25789;-80
2020/12/18 01:11:19;;;;;;;99.15;49.10;;;;;;;4.82;79.14;101449.52;1790372;78;25775;-80
2020/12/18 01:13:47;;;;;;;106.05;50.45;;;;;;;4.83;79.13;101454.34;1742472;78;28421;-80
2020/12/18 01:16:15;;;;;;;99.25;46.92;;;;;;;4.80;78.93;101446.63;1758438;80;26154;-80
2020/12/18 01:18:44;;;;;;;98.00;47.38;;;;;;;4.76;79.05;101452.69;1704872;80;25745;-80
2020/12/18 01:21:12;;;;;;;95.67;47.17;;;;;;;4.75;79.17;101451.50;1737092;80;25925;-80
2020/12/18 01:23:43;;;;;;;102.15;49.85;;;;;;;4.76;79.26;101456.67;1717021;80;25877;-80
2020/12/18 01:26:12;;;;;;;106.52;49.65;;;;;;;4.78;79.29;101449.42;1709305;81;27529;-80
2020/12/18 01:28:41;;;;;;;109.20;51.63;;;;;;;4.77;79.17;101449.05;1734762;80;25906;-80
2020/12/18 01:31:09;;;;;;;101.35;49.30;;;;;;;4.79;79.28;101451.59;1762648;80;25762;-80
2020/12/18 01:33:37;;;;;;;100.87;46.83;;;;;;;4.79;79.27;101451.09;1710492;80;26408;-80
2020/12/18 01:36:08;;;;;;;104.05;50.45;;;;;;;4.78;79.21;101452.55;1712835;80;25403;-80
2020/12/18 01:38:37;;;;;;;96.63;46.37;;;;;;;4.79;79.37;101449.77;1743200;80;26944;-80
2020/12/18 01:41:05;;;;;;;97.53;47.60;;;;;;;4.80;79.22;101443.97;1765606;80;25393;-80
2020/12/18 01:43:33;;;;;;;90.83;46.68;;;;;;;4.80;79.28;101454.11;1692364;80;25922;-80
2020/12/18 01:46:06;;;;;;;98.65;47.73;;;;;;;4.82;79.37;101456.16;1713886;80;25903;-80
2020/12/18 01:48:34;;;;;;;94.83;46.63;;;;;;;4.83;79.25;101452.55;1715132;80;25957;-80
2020/12/18 01:51:03;;;;;;;93.33;47.00;;;;;;;4.84;79.33;101450.23;1764567;80;27545;-81
2020/12/18 01:53:31;;;;;;;91.30;47.73;;;;;;;4.85;79.30;101454.58;1725555;80;26444;-80
2020/12/18 01:56:14;;;;;;;88.62;46.83;;;;;;;4.86;79.34;101451.41;1768461;80;25793;-80
2020/12/18 01:58:44;;;;;;;97.02;49.23;;;;;;;4.87;79.34;101457.09;1765549;80;26175;-79
2020/12/18 02:01:14;;;;;;;91.42;45.03;;;;;;;4.87;79.35;101449.98;1763235;79;26204;-80
2020/12/18 02:03:53;;;;;;;91.80;43.73;;;;;;;4.91;79.33;101446.09;1828346;77;25808;-80
2020/12/18 02:06:26;;;;;;;90.87;44.75;;;;;;;4.90;79.35;101450.22;1800215;78;25893;-80
2020/12/18 02:09:06;;;;;;;84.83;44.70;;;;;;;4.93;79.33;101445.48;1830579;77;25767;-80
2020/12/18 02:11:35;;;;;;;86.45;42.17;;;;;;;4.89;79.40;101449.84;1794083;79;25710;-80
2020/12/18 02:14:10;;;;;;;94.13;45.75;;;;;;;4.88;79.33;101462.74;1762932;78;27321;-80
2020/12/18 02:16:38;;;;;;;87.95;44.00;;;;;;;4.88;79.34;101472.03;1770339;80;26503;-80
2020/12/18 02:19:12;;;;;;;88.22;43.87;;;;;;;4.85;79.29;101465.20;1765544;80;25615;-80
2020/12/18 02:21:40;;;;;;;88.52;44.30;;;;;;;4.83;79.37;101459.18;1769992;80;25850;-80
2020/12/18 02:24:11;;;;;;;86.32;43.95;;;;;;;4.79;79.37;101463.03;1727452;80;25718;-80
2020/12/18 02:26:38;;;;;;;82.90;42.45;;;;;;;4.79;79.52;101454.25;1730498;81;27720;-80
2020/12/18 02:29:07;;;;;;;87.33;41.73;;;;;;;4.78;79.56;101451.23;1735386;80;25432;-80
2020/12/18 02:31:37;;;;;;;85.15;42.55;;;;;;;4.77;79.59;101453.03;1757974;80;25730;-80
2020/12/18 02:34:29;;;;;;;82.27;40.60;;;;;;;4.80;79.64;101456.77;1836595;77;25695;-81
2020/12/18 02:36:59;;;;;;;84.58;43.25;;;;;;;4.73;79.67;101461.41;1780161;80;25683;-80
2020/12/18 02:39:29;;;;;;;80.63;40.57;;;;;;;4.71;79.73;101462.84;1740565;80;27483;-81
2020/12/18 02:41:58;;;;;;;75.67;38.50;;;;;;;4.66;79.71;101461.08;1732568;80;26107;-80
2020/12/18 02:44:35;;;;;;;74.40;39.23;;;;;;;4.66;79.76;101462.40;1831966;77;25282;-80
2020/12/18 02:47:07;;;;;;;79.17;40.95;;;;;;;4.55;79.91;101462.45;1788277;78;25832;-80
2020/12/18 02:49:35;;;;;;;78.65;41.48;;;;;;;4.56;80.17;101462.78;1752574;80;27519;-80
2020/12/18 02:52:03;;;;;;;78.55;40.45;;;;;;;4.58;80.15;101459.52;1746392;78;26081;-80
2020/12/18 02:54:43;;;;;;;74.53;38.78;;;;;;;4.61;80.09;101471.22;1825485;77;25299;-80
2020/12/18 02:57:29;;;;;;;71.07;35.28;;;;;;;4.52;80.22;101469.31;1794526;78;25776;-80
2020/12/18 03:00:01;;;;;;;76.62;40.28;;;;;;;4.46;80.23;101468.50;1769438;78;28433;-80
2020/12/18 03:02:30;;;;;;;76.30;39.18;;;;;;;4.44;80.41;101459.83;1782271;78;25863;-80
2020/12/18 03:04:59;;;;;;;79.27;41.45;;;;;;;4.45;80.62;101454.39;1792160;78;25811;-80
2020/12/18 03:07:44;;;;;;;81.22;40.75;;;;;;;4.48;80.64;101456.80;1799041;78;25807;-80
2020/12/18 03:10:13;;;;;;;75.32;39.10;;;;;;;4.51;80.64;101465.00;1792079;78;26049;-80
2020/12/18 03:12:41;;;;;;;78.07;39.42;;;;;;;4.49;80.55;101473.57;1778125;78;27679;-80
2020/12/18 03:15:09;;;;;;;73.42;38.15;;;;;;;4.48;80.67;101464.77;1758435;78;25937;-80
2020/12/18 03:18:01;;;;;;;71.28;36.88;;;;;;;4.50;80.67;101464.15;1824613;77;25743;-80
2020/12/18 03:20:31;;;;;;;75.78;39.65;;;;;;;4.45;80.78;101465.00;1786236;78;25755;-80
2020/12/18 03:23:16;;;;;;;75.08;37.55;;;;;;;4.49;80.87;101456.33;1753024;80;27617;-80
2020/12/18 03:26:02;;;;;;;77.77;45.53;;;;;;;4.56;80.83;101453.50;1798187;78;32444;-80
2020/12/18 03:28:31;;;;;;;70.22;39.08;;;;;;;4.75;80.34;101451.50;1793804;78;25924;-80
2020/12/18 03:30:59;;;;;;;64.70;36.30;;;;;;;4.69;80.33;101464.30;1757390;79;27551;-80
2020/12/18 03:33:27;;;;;;;65.83;35.90;;;;;;;4.65;80.25;101464.20;1766528;78;25776;-80
2020/12/18 03:35:56;;;;;;;70.75;35.78;;;;;;;4.61;80.41;101472.06;1758859;80;25974;-80
2020/12/18 03:38:24;;;;;;;69.42;35.65;;;;;;;4.59;80.50;101478.47;1765252;79;25895;-80
2020/12/18 03:40:52;;;;;;;65.17;35.40;;;;;;;4.57;80.51;101473.30;1736355;78;26295;-80
2020/12/18 03:43:21;;;;;;;70.25;37.60;;;;;;;4.56;80.69;101475.58;1759042;80;27600;-80
2020/12/18 03:45:51;;;;;;;71.30;38.50;;;;;;;4.56;80.67;101476.91;1755176;78;25862;-80
2020/12/18 03:48:33;;;;;;;68.60;34.78;;;;;;;4.56;80.79;101474.25;1793449;78;25751;-80
2020/12/18 03:51:08;;;;;;;65.80;34.78;;;;;;;4.56;80.83;101471.59;1757547;79;26536;-80
2020/12/18 03:53:35;;;;;;;65.30;35.23;;;;;;;4.54;80.72;101468.70;1796989;78;25818;-80
2020/12/18 03:56:07;;;;;;;66.20;33.78;;;;;;;4.56;80.87;101465.44;1760489;79;27094;-81
2020/12/18 03:58:40;;;;;;;54.48;31.87;;;;;;;4.56;80.67;101466.28;1760264;78;25754;-80
2020/12/18 04:01:12;;;;;;;58.68;31.73;;;;;;;4.52;80.68;101466.66;1759465;78;26177;-80
2020/12/18 04:03:39;;;;;;;62.80;33.00;;;;;;;4.49;80.73;101469.59;1763598;79;25785;-80
2020/12/18 04:06:08;;;;;;;61.25;33.60;;;;;;;4.49;80.81;101470.92;1744056;80;25828;-80
2020/12/18 04:08:35;;;;;;;60.88;31.17;;;;;;;4.49;80.84;101471.73;1767474;79;27539;-80
2020/12/18 04:11:13;;;;;;;60.45;30.70;;;;;;;4.55;80.91;101469.08;1826875;77;26003;-80
2020/12/18 04:13:42;;;;;;;61.20;31.77;;;;;;;4.48;80.80;101463.91;1797114;78;26324;-80
2020/12/18 04:16:10;;;;;;;59.88;32.33;;;;;;;4.47;80.92;101464.89;1719719;78;27538;-80
2020/12/18 04:18:38;;;;;;;58.13;31.27;;;;;;;4.48;81.01;101471.88;1671269;81;26153;-80
2020/12/18 04:21:06;;;;;;;53.98;31.05;;;;;;;4.47;80.96;101475.51;1699707;82;25910;-80
2020/12/18 04:23:38;;;;;;;58.80;31.70;;;;;;;4.46;80.98;101473.33;1704911;83;25730;-80
2020/12/18 04:26:16;;;;;;;57.60;30.20;;;;;;;4.48;80.96;101471.88;1824985;77;25770;-80
2020/12/18 04:28:43;;;;;;;53.87;28.55;;;;;;;4.42;81.13;101475.88;1803636;78;25812;-80
2020/12/18 04:31:12;;;;;;;54.90;27.75;;;;;;;4.42;81.14;101479.86;1756851;78;27533;-80
2020/12/18 04:33:39;;;;;;;59.83;30.82;;;;;;;4.43;81.21;101472.72;1763623;78;25825;-80
2020/12/18 04:36:07;;;;;;;54.98;30.17;;;;;;;4.43;81.26;101476.70;1780330;78;25786;-80
2020/12/18 04:38:36;;;;;;;56.65;29.35;;;;;;;4.43;81.26;101476.70;1798598;78;25813;-80
2020/12/18 04:41:08;;;;;;;57.10;30.37;;;;;;;4.44;81.29;101482.38;1746942;80;25826;-80
2020/12/18 04:43:47;;;;;;;52.83;28.50;;;;;;;4.42;81.29;101479.02;1737608;78;27538;-80
2020/12/18 04:46:18;;;;;;;59.27;31.30;;;;;;;4.43;81.31;101486.84;1776220;78;25844;-80
2020/12/18 04:48:48;;;;;;;59.93;29.30;;;;;;;4.43;81.36;101484.66;1805626;78;25785;-80
2020/12/18 04:51:25;;;;;;;56.42;29.27;;;;;;;4.45;81.43;101484.89;1752282;78;25885;-80
2020/12/18 04:53:55;;;;;;;56.53;30.88;;;;;;;4.43;81.36;101489.48;1775051;80;25729;-80
2020/12/18 04:56:35;;;;;;;60.85;30.37;;;;;;;4.45;81.42;101486.22;1835675;77;26137;-80
2020/12/18 04:59:07;;;;;;;59.77;30.75;;;;;;;4.43;81.57;101487.31;1798626;78;25703;-80
2020/12/18 05:01:47;;;;;;;63.38;30.32;;;;;;;4.46;81.53;101482.62;1826342;77;25756;-80
2020/12/18 05:04:19;;;;;;;69.85;34.88;;;;;;;4.42;81.65;101487.82;1797029;78;25844;-80
2020/12/18 05:06:49;;;;;;;58.23;30.77;;;;;;;4.40;81.69;101484.93;1776449;80;27545;-80
2020/12/18 05:09:18;;;;;;;55.43;28.25;;;;;;;4.39;81.66;101488.06;1749322;80;25945;-80
2020/12/18 05:11:47;;;;;;;59.20;29.05;;;;;;;4.39;81.81;101491.19;1728344;80;26498;-79
2020/12/18 05:14:15;;;;;;;62.08;31.77;;;;;;;4.39;81.82;101496.49;1773579;79;25793;-80
2020/12/18 05:16:46;;;;;;;70.62;34.67;;;;;;;4.41;81.91;101491.91;1648834;83;26126;-81
2020/12/18 05:19:19;;;;;;;56.42;31.02;;;;;;;4.46;82.00;101501.19;1673544;83;28726;-80
2020/12/18 05:22:09;;;;;;;66.53;32.25;;;;;;;4.55;82.00;101495.13;1830658;77;25653;-80
2020/12/18 05:24:54;;;;;;;62.40;32.73;;;;;;;4.56;82.09;101485.34;1796394;78;25834;-80
2020/12/18 05:27:23;;;;;;;61.60;31.02;;;;;;;4.60;82.04;101495.58;1762730;78;27452;-80
2020/12/18 05:29:52;;;;;;;63.30;31.45;;;;;;;4.62;81.99;101487.48;1740015;78;25671;-80
2020/12/18 05:32:37;;;;;;;64.70;34.35;;;;;;;4.64;81.97;101490.87;1795587;78;25407;-80
2020/12/18 05:35:06;;;;;;;60.15;31.17;;;;;;;4.64;81.95;101497.00;1789824;78;25820;-80
2020/12/18 05:37:45;;;;;;;62.35;31.82;;;;;;;4.68;81.91;101493.12;1822892;77;25622;-80
2020/12/18 05:40:17;;;;;;;63.85;32.55;;;;;;;4.66;82.02;101500.88;1708713;79;26493;-80
2020/12/18 05:42:57;;;;;;;63.30;31.97;;;;;;;4.75;82.03;101499.27;1826350;77;26374;-80
2020/12/18 05:45:27;;;;;;;67.08;33.92;;;;;;;4.73;82.04;101506.52;1806943;78;25742;-80
2020/12/18 05:48:04;;;;;;;63.17;32.93;;;;;;;4.80;82.00;101519.62;1816629;77;25714;-80
2020/12/18 05:50:37;;;;;;;65.80;33.13;;;;;;;4.77;81.99;101523.88;1787751;80;25834;-81
2020/12/18 05:53:09;;;;;;;63.50;34.53;;;;;;;4.74;81.93;101524.97;1739726;80;28574;-80
2020/12/18 05:55:46;;;;;;;66.05;34.10;;;;;;;4.81;81.99;101525.30;1841184;77;25694;-80
2020/12/18 05:58:16;;;;;;;73.57;39.27;;;;;;;4.76;82.00;101527.00;1760180;80;26148;-80
2020/12/18 06:00:46;;;;;;;78.55;39.20;;;;;;;4.77;82.07;101531.33;1700763;80;27550;-81
2020/12/18 06:03:39;;;;;;;107.22;52.30;;;;;;;4.82;81.90;101535.78;1828336;77;25711;-80
2020/12/18 06:06:11;;;;;;;82.80;42.62;;;;;;;4.75;81.93;101538.58;1792983;79;26059;-80
2020/12/18 06:08:42;;;;;;;89.10;44.80;;;;;;;4.76;82.01;101534.12;1771860;79;28524;-80
2020/12/18 06:11:14;;;;;;;69.05;34.98;;;;;;;4.76;82.12;101534.97;1777917;78;25786;-80
2020/12/18 06:13:58;;;;;;;134.75;60.00;;;;;;;4.81;82.04;101538.09;1839890;77;25713;-80
2020/12/18 06:16:49;;;;;;;74.10;39.25;;;;;;;4.77;82.18;101533.98;1801514;78;25778;-81
2020/12/18 06:19:42;;;;;;;72.65;36.55;;;;;;;4.83;82.11;101541.46;1736661;80;27633;-80
2020/12/18 06:22:13;;;;;;;71.97;37.48;;;;;;;4.78;82.22;101533.03;1710869;82;26010;-80
2020/12/18 06:25:06;;;;;;;66.60;35.58;;;;;;;4.83;82.29;101548.09;1701435;82;28260;-80
2020/12/18 06:28:03;;;;;;;64.95;36.88;;;;;;;4.82;82.23;101545.55;1702777;82;25837;-80
2020/12/18 06:30:32;;;;;;;65.08;32.30;;;;;;;4.77;82.27;101555.22;1654129;82;25924;-80
2020/12/18 06:33:18;;;;;;;72.50;42.33;;;;;;;4.80;82.34;101555.45;1812175;77;28468;-80
2020/12/18 06:35:47;;;;;;;62.20;33.40;;;;;;;4.94;81.88;101555.98;1795971;78;25826;-80
2020/12/18 06:38:32;;;;;;;65.28;32.93;;;;;;;4.92;82.10;101555.78;1724727;80;27541;-80
2020/12/18 06:41:25;;;;;;;64.58;32.85;;;;;;;4.95;82.23;101555.03;1825547;77;25315;-80
2020/12/18 06:44:03;;;;;;;63.23;32.93;;;;;;;4.91;82.38;101558.92;1780035;78;25779;-79
2020/12/18 06:46:32;;;;;;;79.60;40.33;;;;;;;4.90;82.49;101567.02;1756334;78;27543;-80
2020/12/18 06:49:08;;;;;;;82.90;41.90;;;;;;;4.87;82.53;101572.09;1743224;81;25433;-80
2020/12/18 06:51:54;;;;;;;80.05;39.30;;;;;;;4.88;82.76;101574.23;1732277;81;25797;-79
2020/12/18 06:54:56;;;;;;;76.72;37.42;;;;;;;4.89;82.77;101574.12;1796795;79;26139;-80
2020/12/18 06:57:26;;;;;;;82.82;38.10;;;;;;;4.80;82.86;101574.88;1743632;80;25737;-79
2020/12/18 07:00:27;;;;;;;85.17;40.92;;;;;;;4.80;83.04;101581.52;1656809;82;27545;-77
2020/12/18 07:02:56;;;;;;;78.28;37.25;;;;;;;4.83;83.17;101585.27;1702916;82;25407;-77
2020/12/18 07:05:40;;;;;;;77.60;36.77;;;;;;;4.85;83.19;101585.13;1736756;81;25881;-77
2020/12/18 07:08:17;;;;;;;85.53;40.73;;;;;;;4.86;83.39;101588.12;1704218;82;25963;-77
2020/12/18 07:10:47;;;;;;;72.08;35.52;;;;;;;4.84;83.35;101584.27;1682322;82;26448;-77
2020/12/18 07:13:18;;;;;;;78.72;38.48;;;;;;;4.84;83.39;101588.25;1703708;82;28696;-77
2020/12/18 07:15:53;;;;;;;74.65;37.42;;;;;;;4.85;83.44;101586.45;1733635;81;25906;-77
2020/12/18 07:18:26;;;;;;;81.65;37.98;;;;;;;4.85;83.52;101593.94;1734890;82;26395;-77
2020/12/18 07:21:01;;;;;;;127.87;56.68;;;;;;;4.86;83.59;101592.10;1665404;82;25797;-77
2020/12/18 07:23:40;;;;;;;102.50;47.50;;;;;;;4.89;83.76;101591.39;1832817;77;25732;-77
2020/12/18 07:26:09;;;;;;;95.15;45.25;;;;;;;4.85;83.81;101598.39;1790665;78;25892;-77
2020/12/18 07:28:39;;;;;;;83.92;41.28;;;;;;;4.85;83.86;101595.27;1747309;78;27515;-77
2020/12/18 07:31:17;;;;;;;90.57;42.33;;;;;;;4.88;83.92;101598.12;1754421;78;25803;-77
2020/12/18 07:33:47;;;;;;;82.92;37.53;;;;;;;4.90;84.06;101594.38;1794868;78;25807;-77
2020/12/18 07:36:15;;;;;;;93.15;47.95;;;;;;;4.90;84.00;101598.36;1801467;78;25746;-77
2020/12/18 07:38:43;;;;;;;92.95;49.23;;;;;;;4.93;84.10;101603.44;1732990;78;25877;-77
2020/12/18 07:41:16;;;;;;;83.50;39.65;;;;;;;4.97;84.10;101606.19;1745105;80;27544;-77
2020/12/18 07:43:46;;;;;;;86.10;41.65;;;;;;;5.01;84.10;101602.79;1777021;78;25843;-76
2020/12/18 07:46:19;;;;;;;73.10;37.83;;;;;;;5.02;84.08;101607.14;1803571;78;25753;-77
2020/12/18 07:48:48;;;;;;;77.78;39.15;;;;;;;5.05;84.27;101613.03;1727599;80;25759;-76
2020/12/18 07:51:19;;;;;;;83.12;39.30;;;;;;;5.08;84.09;101611.95;1801044;78;25869;-77
2020/12/18 07:53:54;;;;;;;76.22;40.05;;;;;;;5.12;84.13;101614.70;1772881;78;27076;-77
2020/12/18 07:56:22;;;;;;;67.67;35.03;;;;;;;5.14;84.07;101614.09;1802393;78;25668;-77
2020/12/18 07:58:59;;;;;;;73.02;38.48;;;;;;;5.15;84.13;101620.63;1729215;79;25850;-77
2020/12/18 08:01:33;;;;;;;103.75;48.33;;;;;;;5.15;84.07;101620.63;1771734;78;25864;-77
2020/12/18 08:04:12;;;;;;;81.85;43.65;;;;;;;5.20;84.21;101626.37;1773712;78;26563;-77
2020/12/18 08:06:43;;;;;;;68.65;35.45;;;;;;;5.23;84.13;101622.15;1797907;78;27530;-77
2020/12/18 08:09:16;;;;;;;74.58;40.23;;;;;;;5.22;84.13;101619.59;1746762;78;25442;-77
2020/12/18 08:14:25;;;;;;;68.28;34.27;;;;;;;5.32;84.21;101628.51;1793722;79;25742;-77
2020/12/18 08:16:52;;;;;;;71.55;35.48;;;;;;;5.25;84.21;101629.50;1768214;80;25891;-77
2020/12/18 08:19:20;;;;;;;66.55;32.93;;;;;;;5.28;84.32;101633.21;1721728;80;27543;-77
2020/12/18 08:21:48;;;;;;;73.07;37.08;;;;;;;5.27;84.30;101636.86;1744906;80;25873;-77
2020/12/18 08:24:33;;;;;;;63.70;34.50;;;;;;;5.29;84.31;101642.88;1761132;80;26170;-77
2020/12/18 08:27:05;;;;;;;69.60;36.33;;;;;;;5.34;84.38;101632.73;1767310;80;25668;-77
2020/12/18 08:29:35;;;;;;;69.42;34.63;;;;;;;5.37;84.31;101636.91;1661970;83;25915;-77
2020/12/18 08:32:05;;;;;;;64.67;33.47;;;;;;;5.39;84.30;101637.63;1670765;83;27481;-77
2020/12/18 08:34:34;;;;;;;91.17;44.58;;;;;;;5.42;84.28;101635.58;1699711;81;26015;-77
2020/12/18 08:37:04;;;;;;;74.62;38.53;;;;;;;5.44;84.35;101635.44;1729831;81;26433;-77
2020/12/18 08:39:39;;;;;;;72.03;36.68;;;;;;;5.51;84.26;101637.95;1833650;77;25719;-77
2020/12/18 08:42:07;;;;;;;65.50;34.95;;;;;;;5.50;84.28;101641.56;1794747;78;25827;-77
2020/12/18 08:44:42;;;;;;;65.55;36.58;;;;;;;5.52;84.18;101642.78;1742804;80;27636;-77
2020/12/18 08:47:27;;;;;;;75.95;38.20;;;;;;;5.53;84.19;101643.98;1730893;81;25855;-77
2020/12/18 08:49:57;;;;;;;71.35;36.28;;;;;;;5.59;84.27;101643.45;1726837;81;25463;-77
2020/12/18 08:52:28;;;;;;;63.30;35.60;;;;;;;5.61;84.24;101648.16;1729912;82;25736;-77
2020/12/18 08:55:06;;;;;;;67.70;34.75;;;;;;;5.64;84.14;101650.56;1683543;82;26373;-77
2020/12/18 08:57:38;;;;;;;78.70;38.98;;;;;;;5.66;84.13;101657.08;1704651;82;28426;-77
2020/12/18 09:00:18;;;;;;;66.45;36.77;;;;;;;5.67;84.10;101650.77;1727086;80;25874;-77
2020/12/18 09:02:57;;;;;;;71.67;37.70;;;;;;;5.71;84.09;101654.88;1745370;81;25898;-77
2020/12/18 09:05:30;;;;;;;75.25;37.65;;;;;;;5.72;84.06;101655.22;1728484;81;25795;-77
2020/12/18 09:08:03;;;;;;;105.75;50.83;;;;;;;5.75;84.07;101656.30;1705907;82;26338;-76
2020/12/18 09:10:44;;;;;;;119.08;57.65;;;;;;;5.78;83.97;101657.35;1700300;82;27559;-77
2020/12/18 09:13:19;;;;;;;100.00;50.80;;;;;;;5.77;83.88;101649.89;1741623;81;26407;-77
2020/12/18 09:16:00;;;;;;;79.03;43.68;;;;;;;5.82;84.07;101656.11;1696654;81;25829;-77
2020/12/18 09:18:30;;;;;;;75.47;43.60;;;;;;;5.84;83.87;101654.20;1722259;81;25883;-79
2020/12/18 09:21:16;;;;;;;70.83;39.30;;;;;;;5.86;83.91;101657.09;1726428;81;25887;-79
2020/12/18 09:23:48;;;;;;;63.45;36.13;;;;;;;5.88;83.74;101652.99;1745597;81;27607;-77
2020/12/18 09:26:28;;;;;;;67.05;38.53;;;;;;;5.86;83.54;101652.28;1694117;82;26528;-77
2020/12/18 09:28:56;;;;;;;67.30;37.30;;;;;;;5.85;83.66;101649.25;1715350;81;25863;-77
2020/12/18 09:31:24;;;;;;;71.17;38.50;;;;;;;5.85;83.59;101650.58;1724578;82;25967;-76
2020/12/18 09:33:51;;;;;;;65.72;36.42;;;;;;;5.83;83.63;101656.01;1728279;81;26402;-77
2020/12/18 09:36:19;;;;;;;63.15;34.48;;;;;;;5.85;83.75;101660.73;1671923;81;27553;-76
2020/12/18 09:38:51;;;;;;;63.98;35.35;;;;;;;5.88;83.68;101664.96;1657821;84;25802;-77
2020/12/18 09:41:21;;;;;;;54.80;30.12;;;;;;;5.90;83.67;101657.69;1677107;84;25843;-77
2020/12/18 09:43:50;;;;;;;60.03;34.67;;;;;;;5.90;83.54;101661.17;1706507;83;25955;-77
2020/12/18 09:46:18;;;;;;;56.60;32.00;;;;;;;5.92;83.59;101661.06;1643765;83;26175;-77
2020/12/18 09:48:47;;;;;;;63.50;33.75;;;;;;;5.95;83.61;101658.13;1666768;83;27749;-77
2020/12/18 09:51:16;;;;;;;63.87;34.58;;;;;;;5.97;83.60;101664.15;1689080;83;25805;-77
2020/12/18 09:53:45;;;;;;;66.85;36.45;;;;;;;6.00;83.62;101665.23;1708564;83;25678;-77
2020/12/18 09:56:14;;;;;;;61.88;34.55;;;;;;;6.03;83.62;101663.14;1685180;83;26472;-77
2020/12/18 09:58:43;;;;;;;68.87;37.05;;;;;;;6.05;83.57;101663.84;1687955;83;26166;-77
2020/12/18 10:01:16;;;;;;;64.92;35.25;;;;;;;6.08;83.51;101664.92;1701307;82;28034;-77
2020/12/18 10:03:44;;;;;;;60.40;32.53;;;;;;;6.08;83.43;101659.61;1727872;82;26184;-77
2020/12/18 10:06:12;;;;;;;61.45;33.63;;;;;;;6.12;83.31;101662.84;1665447;82;25815;-77
2020/12/18 10:08:41;;;;;;;62.40;33.88;;;;;;;6.09;83.26;101659.12;1726693;81;25730;-77
2020/12/18 10:11:08;;;;;;;64.85;36.70;;;;;;;6.09;83.33;101666.59;1704154;82;25766;-77
2020/12/18 10:13:36;;;;;;;71.17;43.25;;;;;;;6.12;83.48;101670.81;1664885;82;27541;-77
2020/12/18 10:16:03;;;;;;;63.95;38.42;;;;;;;6.15;83.47;101667.42;1657644;82;25852;-77
2020/12/18 10:18:30;;;;;;;87.88;45.40;;;;;;;6.15;83.36;101666.09;1666220;83;26239;-77
2020/12/18 10:20:58;;;;;;;85.53;45.10;;;;;;;6.17;83.32;101668.13;1664455;83;25986;-77
2020/12/18 10:23:27;;;;;;;67.70;40.50;;;;;;;6.18;83.32;101657.83;1689686;83;26093;-77
2020/12/18 10:25:55;;;;;;;63.42;37.80;;;;;;;6.17;83.17;101654.83;1665162;83;28501;-76
2020/12/18 10:28:25;;;;;;;69.45;40.48;;;;;;;6.17;83.10;101667.28;1650508;83;25860;-77
2020/12/18 10:30:54;;;;;;;62.48;36.17;;;;;;;6.17;83.26;101661.48;1704811;82;25799;-77
2020/12/18 10:33:21;;;;;;;67.95;37.33;;;;;;;6.17;83.12;101660.15;1724254;82;26404;-77
2020/12/18 10:35:49;;;;;;;65.42;35.52;;;;;;;6.17;83.17;101660.63;1635969;83;26086;-77
2020/12/18 10:38:19;;;;;;;69.72;39.03;;;;;;;6.21;83.34;101664.70;1662497;82;28112;-77
2020/12/18 10:40:46;;;;;;;68.25;39.05;;;;;;;6.25;83.31;101671.45;1721138;81;25956;-77
2020/12/18 10:43:14;;;;;;;66.55;37.17;;;;;;;6.27;83.30;101670.82;1738968;81;25784;-77
2020/12/18 10:45:42;;;;;;;55.48;32.53;;;;;;;6.29;83.17;101672.86;1687569;82;26406;-77
2020/12/18 10:48:10;;;;;;;54.42;32.30;;;;;;;6.30;83.21;101676.38;1696020;81;26572;-76
2020/12/18 10:50:37;;;;;;;60.60;32.45;;;;;;;6.29;83.09;101678.19;1677939;82;27333;-77
2020/12/18 10:53:05;;;;;;;61.10;34.13;;;;;;;6.29;83.24;101674.19;1744296;81;25710;-76
2020/12/18 10:55:34;;;;;;;61.35;34.38;;;;;;;6.29;83.05;101674.19;1672011;81;25413;-77
2020/12/18 10:58:01;;;;;;;58.42;34.55;;;;;;;6.30;83.11;101676.38;1718422;81;26140;-76
2020/12/18 11:00:28;;;;;;;63.68;35.60;;;;;;;6.31;83.21;101670.91;1694634;81;25728;-77
2020/12/18 11:02:57;;;;;;;65.70;37.13;;;;;;;6.33;83.29;101670.80;1741497;81;27514;-77
2020/12/18 11:05:24;;;;;;;64.53;33.92;;;;;;;6.35;83.23;101668.33;1699467;81;25429;-77
2020/12/18 11:07:51;;;;;;;129.53;62.17;;;;;;;6.39;83.36;101665.78;1698134;81;25964;-77
2020/12/18 11:10:19;;;;;;;98.65;50.63;;;;;;;6.43;83.37;101665.02;1730434;81;25788;-77
2020/12/18 11:12:46;;;;;;;76.33;40.83;;;;;;;6.47;83.41;101675.27;1732692;82;25841;-77
2020/12/18 11:15:13;;;;;;;64.25;37.03;;;;;;;6.50;83.44;101665.66;1668310;82;28453;-77
2020/12/18 11:17:41;;;;;;;65.20;37.08;;;;;;;6.55;83.26;101670.58;1688002;82;25742;-77
2020/12/18 11:20:09;;;;;;;54.10;30.40;;;;;;;6.52;82.97;101666.37;1704069;82;25935;-77
2020/12/18 11:22:36;;;;;;;71.75;40.08;;;;;;;6.51;82.91;101663.85;1732806;82;26368;-77
2020/12/18 11:25:04;;;;;;;66.53;35.00;;;;;;;6.49;83.03;101667.14;1709581;81;25937;-77
2020/12/18 11:27:32;;;;;;;75.70;42.13;;;;;;;6.51;83.08;101666.52;1719606;82;28602;-77
2020/12/18 11:29:59;;;;;;;65.67;37.75;;;;;;;6.52;83.16;101665.55;1725468;81;25855;-77
2020/12/18 11:32:27;;;;;;;67.85;37.80;;;;;;;6.53;83.16;101671.20;1723378;81;25358;-76
2020/12/18 11:34:54;;;;;;;61.95;36.10;;;;;;;6.51;82.96;101662.52;1684909;81;25729;-77
2020/12/18 11:37:21;;;;;;;70.30;38.33;;;;;;;6.52;83.08;101666.88;1683544;82;26142;-77
2020/12/18 11:39:49;;;;;;;70.67;38.58;;;;;;;6.56;83.15;101665.15;1737052;80;28022;-77
2020/12/18 11:42:17;;;;;;;62.17;35.85;;;;;;;6.60;83.08;101663.05;1706284;82;25744;-77